Time;durP1;ratioP1;P1;durP2;ratioP2;P2;SDS_P1;SDS_P2;PMS_P1;PMS_P2;Temp;Humidity;BMP_temperature;BMP_pressure;BME280_temperature;BME280_humidity;BME280_pressure;Samples;Min_cycle;Max_cycle;Signal;HPM_P1;HPM_P2
2021/09/11 00:00:37;;;;;;;7.97;3.30;;;;;;;20.41;75.07;101271.78;5073916;28;20051;-60
2021/09/11 00:03:11;;;;;;;9.18;3.00;;;;;;;20.44;74.75;101271.03;5073704;28;20052;-60
2021/09/11 00:05:39;;;;;;;6.38;3.13;;;;;;;20.37;73.77;101271.69;5073509;28;20049;-61
2021/09/11 00:08:07;;;;;;;5.03;2.78;;;;;;;20.50;74.14;101270.41;5072162;28;20057;-61
2021/09/11 00:10:36;;;;;;;4.93;2.63;;;;;;;20.65;73.92;101266.72;5072236;28;20052;-61
2021/09/11 00:13:03;;;;;;;4.80;2.70;;;;;;;20.75;73.01;101266.13;5078607;28;20055;-62
2021/09/11 00:15:31;;;;;;;9.43;3.15;;;;;;;20.71;72.78;101275.66;5092291;28;20059;-62
2021/09/11 00:18:04;;;;;;;6.15;3.38;;;;;;;20.74;72.74;101270.13;5091980;28;20055;-61
2021/09/11 00:20:35;;;;;;;5.28;2.80;;;;;;;20.20;72.66;101274.91;5093691;28;20067;-62
2021/09/11 00:23:08;;;;;;;7.25;3.08;;;;;;;20.13;74.29;101269.13;5094618;28;20483;-61
2021/09/11 00:25:36;;;;;;;6.32;3.03;;;;;;;20.34;74.19;101268.81;5097396;28;20040;-61
2021/09/11 00:28:04;;;;;;;6.90;2.72;;;;;;;20.29;72.08;101271.91;5095874;28;20407;-62
2021/09/11 00:30:31;;;;;;;6.78;2.97;;;;;;;20.22;74.84;101271.75;5096946;28;20047;-62
2021/09/11 00:33:00;;;;;;;5.70;2.95;;;;;;;20.31;73.40;101273.16;5096815;28;20078;-61
2021/09/11 00:35:28;;;;;;;9.90;2.80;;;;;;;20.45;73.02;101270.66;5094639;28;20044;-61
2021/09/11 00:37:55;;;;;;;6.63;3.17;;;;;;;20.59;71.99;101273.00;5096180;28;20048;-65
2021/09/11 00:40:22;;;;;;;8.38;3.10;;;;;;;20.45;71.99;101262.28;5081550;28;20643;-65
2021/09/11 00:42:49;;;;;;;6.82;2.92;;;;;;;20.42;72.19;101265.00;5076138;28;20040;-65
2021/09/11 00:45:22;;;;;;;6.53;2.83;;;;;;;20.18;72.55;101266.06;5075965;28;20049;-65
2021/09/11 00:47:50;;;;;;;7.53;2.95;;;;;;;20.32;73.13;101265.56;5090917;28;20052;-66
2021/09/11 00:50:18;;;;;;;7.57;2.70;;;;;;;20.25;72.78;101269.03;5075871;28;20048;-66
2021/09/11 00:52:46;;;;;;;6.68;2.83;;;;;;;20.49;72.62;101262.34;5075807;28;20132;-66
2021/09/11 00:55:16;;;;;;;4.97;2.47;;;;;;;20.57;72.07;101266.94;5075743;28;20040;-65
2021/09/11 00:57:46;;;;;;;5.97;3.03;;;;;;;20.54;70.08;101268.47;5090717;28;20048;-66
2021/09/11 01:00:14;;;;;;;8.02;2.92;;;;;;;20.29;72.77;101269.94;5074576;28;20731;-65
2021/09/11 01:02:41;;;;;;;6.78;2.65;;;;;;;20.58;71.44;101274.97;5076005;28;20059;-69
2021/09/11 01:05:10;;;;;;;6.60;2.83;;;;;;;20.69;69.81;101273.22;5075813;28;20056;-62
2021/09/11 01:07:41;;;;;;;5.47;2.88;;;;;;;20.15;71.39;101278.75;5075274;28;20048;-61
2021/09/11 01:10:09;;;;;;;7.63;3.10;;;;;;;20.02;71.22;101282.84;5075536;28;20053;-61
2021/09/11 01:12:37;;;;;;;4.95;2.90;;;;;;;20.11;70.61;101285.44;5077464;28;20040;-61
2021/09/11 01:15:06;;;;;;;7.30;3.00;;;;;;;19.55;71.65;101287.66;5095506;28;20048;-60
2021/09/11 01:17:35;;;;;;;7.57;2.60;;;;;;;19.50;72.57;101298.28;5110801;28;20052;-60
2021/09/11 01:20:03;;;;;;;5.43;2.90;;;;;;;19.78;73.06;101291.44;5110380;28;20400;-60
2021/09/11 01:22:30;;;;;;;5.93;2.60;;;;;;;20.05;73.23;101284.91;5095402;28;20126;-61
2021/09/11 01:25:09;;;;;;;4.93;2.53;;;;;;;20.27;71.53;101293.84;5077381;28;20052;-60
2021/09/11 01:27:37;;;;;;;7.43;2.65;;;;;;;20.44;70.95;101299.03;5095163;28;20048;-61
2021/09/11 01:30:12;;;;;;;7.88;3.03;;;;;;;20.14;70.43;101296.72;5093787;28;20431;-60
2021/09/11 01:32:40;;;;;;;4.90;2.70;;;;;;;19.87;72.59;101294.88;5095108;28;20048;-60
2021/09/11 01:35:08;;;;;;;7.10;2.90;;;;;;;19.61;71.70;101289.03;5095078;28;20110;-65
2021/09/11 01:37:36;;;;;;;4.90;2.83;;;;;;;19.73;71.90;101288.94;5095041;28;20052;-64
2021/09/11 01:40:05;;;;;;;6.78;3.22;;;;;;;19.74;72.10;101298.09;5082906;28;20075;-66
2021/09/11 01:42:32;;;;;;;6.82;2.72;;;;;;;19.78;72.02;101304.59;5074837;28;20052;-60
2021/09/11 01:45:02;;;;;;;5.10;2.30;;;;;;;19.94;71.69;101299.81;5074770;28;20048;-60
2021/09/11 01:47:29;;;;;;;;;;;;;;;20.04;71.58;101297.28;5090285;28;20055;-60
2021/09/11 01:49:56;;;;;;;6.18;2.50;;;;;;;20.13;70.97;101297.91;5074377;28;19920;-64
2021/09/11 01:52:24;;;;;;;7.30;2.40;;;;;;;20.17;69.05;101297.22;5074581;28;20040;-64
2021/09/11 01:54:51;;;;;;;4.68;2.25;;;;;;;20.19;70.28;101301.25;5074592;28;20052;-65
2021/09/11 01:57:19;;;;;;;6.28;2.60;;;;;;;19.90;70.67;101301.72;5075449;28;20057;-65
2021/09/11 01:59:46;;;;;;;5.78;2.72;;;;;;;19.39;71.02;101294.38;5074127;28;20156;-65
2021/09/11 02:02:13;;;;;;;5.80;2.97;;;;;;;19.06;72.78;101298.28;5074407;28;20044;-60
2021/09/11 02:04:41;;;;;;;5.03;2.70;;;;;;;18.67;74.11;101292.75;5072769;28;20049;-61
2021/09/11 02:07:08;;;;;;;5.88;2.65;;;;;;;19.21;74.29;101290.28;5056467;28;20067;-61
2021/09/11 02:09:36;;;;;;;6.32;2.35;;;;;;;19.68;72.17;101296.78;5073848;28;20562;-61
2021/09/11 02:12:05;;;;;;;6.45;2.80;;;;;;;19.72;71.11;101289.25;5074186;28;20148;-65
2021/09/11 02:14:33;;;;;;;6.28;2.50;;;;;;;19.76;70.31;101295.75;5092247;28;20044;-65
2021/09/11 02:17:03;;;;;;;4.85;2.40;;;;;;;19.67;70.42;101292.34;5110060;28;20055;-67
2021/09/11 02:19:32;;;;;;;5.78;2.67;;;;;;;19.79;70.78;101303.41;5093240;28;20055;-65
2021/09/11 02:22:01;;;;;;;5.82;2.90;;;;;;;19.73;70.92;101300.13;5094930;28;20552;-66
2021/09/11 02:24:29;;;;;;;7.90;2.92;;;;;;;19.39;69.71;101292.41;5095030;28;20055;-65
2021/09/11 02:27:02;;;;;;;5.70;2.95;;;;;;;19.30;69.74;101297.34;5095148;28;20055;-64
2021/09/11 02:29:30;;;;;;;4.40;2.40;;;;;;;19.34;71.06;101297.44;5093602;28;20048;-61
2021/09/11 02:31:57;;;;;;;7.05;2.60;;;;;;;19.53;71.11;101292.78;5094675;28;20491;-61
2021/09/11 02:34:25;;;;;;;4.93;2.47;;;;;;;19.45;70.33;101284.59;5094798;28;20051;-61
2021/09/11 02:36:55;;;;;;;6.07;2.20;;;;;;;19.56;68.75;101296.84;5093669;28;20052;-61
2021/09/11 02:39:23;;;;;;;5.15;2.60;;;;;;;19.08;70.69;101293.16;5088030;28;20048;-61
2021/09/11 02:41:53;;;;;;;5.35;2.38;;;;;;;19.53;70.72;101289.19;5074111;28;20048;-62
2021/09/11 02:44:21;;;;;;;5.40;2.50;;;;;;;19.56;70.14;101289.25;5073194;28;20056;-61
2021/09/11 02:46:48;;;;;;;3.63;2.42;;;;;;;19.81;68.67;101287.94;5073904;28;20111;-61
2021/09/11 02:49:16;;;;;;;5.55;2.53;;;;;;;19.28;69.73;101291.31;5073974;28;20052;-62
2021/09/11 02:51:44;;;;;;;5.32;2.17;;;;;;;19.46;70.34;101284.22;5074251;28;20063;-61
2021/09/11 02:54:11;;;;;;;5.13;2.13;;;;;;;19.78;68.61;101283.06;5055764;28;20060;-60
2021/09/11 02:56:39;;;;;;;6.00;2.38;;;;;;;19.45;69.26;101288.19;5074353;28;20044;-60
2021/09/11 02:59:06;;;;;;;5.72;2.15;;;;;;;19.80;69.25;101289.09;5072935;28;20073;-66
2021/09/11 03:01:34;;;;;;;6.78;2.40;;;;;;;19.31;68.51;101287.00;5073624;28;20049;-61
2021/09/11 03:04:02;;;;;;;4.88;2.08;;;;;;;19.54;69.94;101291.63;5073019;28;20045;-65
2021/09/11 03:06:29;;;;;;;7.40;2.25;;;;;;;19.61;68.88;101291.81;5073664;28;20044;-65
2021/09/11 03:08:57;;;;;;;6.53;2.70;;;;;;;19.68;68.34;101293.97;5071073;28;20056;-65
2021/09/11 03:11:24;;;;;;;4.07;2.30;;;;;;;19.58;68.76;101291.72;5073464;28;20044;-61
2021/09/11 03:13:51;;;;;;;5.70;2.75;;;;;;;19.06;69.10;101292.69;5073227;28;20071;-65
2021/09/11 03:16:18;;;;;;;5.75;2.42;;;;;;;18.85;70.71;101278.13;5075713;28;20040;-62
2021/09/11 03:18:46;;;;;;;5.22;2.65;;;;;;;18.29;72.98;101286.75;5093604;28;20063;-60
2021/09/11 03:21:13;;;;;;;5.82;2.70;;;;;;;18.16;72.31;101287.94;5093670;28;20178;-62
2021/09/11 03:23:40;;;;;;;6.03;2.35;;;;;;;18.21;73.86;101299.66;5091438;28;20055;-65
2021/09/11 03:26:07;;;;;;;7.78;2.60;;;;;;;18.64;73.27;101301.78;5093704;28;20048;-64
2021/09/11 03:28:35;;;;;;;7.22;2.75;;;;;;;18.36;72.05;101298.94;5093152;28;20052;-64
2021/09/11 03:31:02;;;;;;;6.72;2.85;;;;;;;18.60;72.84;101295.31;5108672;28;20051;-64
2021/09/11 03:33:29;;;;;;;6.30;3.03;;;;;;;18.82;71.07;101294.78;5093372;28;20075;-64
2021/09/11 03:35:57;;;;;;;5.22;2.70;;;;;;;18.84;70.75;101293.25;5092070;28;20399;-64
2021/09/11 03:38:24;;;;;;;6.47;2.60;;;;;;;19.03;70.97;101295.38;5093394;28;20055;-64
2021/09/11 03:40:51;;;;;;;6.43;2.53;;;;;;;19.09;70.48;101297.56;5093539;28;20048;-64
2021/09/11 03:43:18;;;;;;;6.35;2.53;;;;;;;19.33;70.15;101293.03;5093488;28;20044;-65
2021/09/11 03:45:46;;;;;;;6.55;2.50;;;;;;;19.45;68.67;101284.59;5093055;28;20407;-65
2021/09/11 03:48:13;;;;;;;6.68;2.42;;;;;;;19.23;69.31;101288.75;5065289;28;20045;-65
2021/09/11 03:50:41;;;;;;;5.05;2.20;;;;;;;19.17;69.06;101295.78;5052742;28;20048;-65
2021/09/11 03:53:08;;;;;;;5.07;2.58;;;;;;;19.13;70.40;101300.44;5062553;28;20075;-65
2021/09/11 03:55:35;;;;;;;7.07;2.30;;;;;;;19.28;69.02;101288.50;5072733;28;20059;-66
2021/09/11 03:58:02;;;;;;;6.70;2.10;;;;;;;19.47;69.15;101293.44;5073064;28;20064;-65
2021/09/11 04:00:30;;;;;;;5.30;2.40;;;;;;;19.01;70.89;101294.91;5076192;28;20044;-65
2021/09/11 04:02:57;;;;;;;4.63;2.20;;;;;;;19.19;69.57;101299.03;5075142;28;20061;-64
2021/09/11 04:05:25;;;;;;;5.45;2.28;;;;;;;19.20;68.69;101295.06;5066064;28;20447;-65
2021/09/11 04:07:52;;;;;;;5.78;2.53;;;;;;;19.13;69.22;101303.25;5056754;28;20068;-65
2021/09/11 04:10:19;;;;;;;5.90;2.28;;;;;;;19.47;68.96;101299.84;5055196;28;20059;-65
2021/09/11 04:12:47;;;;;;;5.45;2.40;;;;;;;19.38;68.47;101298.38;5066005;28;20052;-65
2021/09/11 04:15:14;;;;;;;5.93;2.45;;;;;;;19.59;67.97;101296.94;5095641;28;20054;-65
2021/09/11 04:17:42;;;;;;;8.25;2.40;;;;;;;19.77;67.03;101297.41;5096724;28;20063;-65
2021/09/11 04:20:10;;;;;;;8.25;2.50;;;;;;;19.53;67.23;101297.56;5096578;28;20487;-65
2021/09/11 04:22:37;;;;;;;4.90;2.20;;;;;;;19.52;67.78;101295.94;5096964;28;20051;-65
2021/09/11 04:25:05;;;;;;;4.95;2.20;;;;;;;19.60;67.59;101300.53;5094749;28;20520;-65
2021/09/11 04:27:32;;;;;;;8.77;2.35;;;;;;;19.75;67.28;101299.75;5096554;28;20502;-65
2021/09/11 04:29:59;;;;;;;5.32;2.10;;;;;;;19.46;67.37;101300.16;5096380;28;20040;-65
2021/09/11 04:32:27;;;;;;;6.60;2.30;;;;;;;19.54;66.76;101305.59;5096240;28;20048;-65
2021/09/11 04:34:54;;;;;;;7.30;2.20;;;;;;;19.44;67.44;101308.13;5077747;28;20052;-64
2021/09/11 04:37:21;;;;;;;4.20;2.25;;;;;;;19.27;67.96;101306.41;5094634;28;20662;-65
2021/09/11 04:39:49;;;;;;;4.53;2.20;;;;;;;19.14;68.95;101306.84;5095187;28;20056;-65
2021/09/11 04:42:16;;;;;;;6.55;2.50;;;;;;;19.29;68.11;101304.09;5082535;28;20059;-65
2021/09/11 04:44:43;;;;;;;5.15;2.60;;;;;;;19.29;68.67;101304.09;5076588;28;20048;-65
2021/09/11 04:47:11;;;;;;;8.38;3.00;;;;;;;19.19;68.22;101304.63;5076499;28;20040;-64
2021/09/11 04:49:38;;;;;;;8.18;2.50;;;;;;;19.31;68.67;101301.78;5091712;28;20055;-65
2021/09/11 04:52:06;;;;;;;7.40;2.35;;;;;;;19.31;67.84;101299.00;5072633;28;20048;-65
2021/09/11 04:54:33;;;;;;;4.82;2.30;;;;;;;19.44;67.53;101308.91;5075289;28;20059;-65
2021/09/11 04:57:01;;;;;;;5.03;2.72;;;;;;;19.32;67.27;101317.38;5074213;28;20041;-64
2021/09/11 04:59:28;;;;;;;4.47;2.42;;;;;;;19.39;68.10;101308.34;5074387;28;20056;-65
2021/09/11 05:01:56;;;;;;;4.88;2.67;;;;;;;19.34;67.91;101309.44;5074620;28;20419;-64
2021/09/11 05:04:24;;;;;;;5.28;2.63;;;;;;;19.28;68.21;101318.41;5074836;28;20056;-64
2021/09/11 05:06:52;;;;;;;4.57;2.63;;;;;;;19.13;68.74;101311.63;5074974;28;20044;-65
2021/09/11 05:09:20;;;;;;;4.82;2.50;;;;;;;18.93;68.98;101312.66;5074968;28;20063;-64
2021/09/11 05:11:47;;;;;;;7.25;2.85;;;;;;;19.12;69.50;101315.59;5075797;28;20048;-65
2021/09/11 05:14:15;;;;;;;6.05;2.60;;;;;;;19.07;69.18;101322.22;5074323;28;20048;-66
2021/09/11 05:16:42;;;;;;;5.82;2.40;;;;;;;18.98;69.79;101326.34;5093971;28;20077;-65
2021/09/11 05:19:10;;;;;;;7.20;2.92;;;;;;;18.71;69.94;101322.38;5094455;28;20048;-65
2021/09/11 05:21:37;;;;;;;7.90;2.67;;;;;;;18.38;71.32;101318.09;5094138;28;20048;-64
2021/09/11 05:24:05;;;;;;;5.45;2.65;;;;;;;18.58;71.09;101320.78;5110626;28;20055;-64
2021/09/11 05:26:32;;;;;;;8.18;2.67;;;;;;;18.87;70.42;101325.22;5094372;28;20051;-65
2021/09/11 05:28:59;;;;;;;8.23;2.58;;;;;;;18.93;70.00;101324.59;5093534;28;20056;-66
2021/09/11 05:31:27;;;;;;;4.18;2.28;;;;;;;19.28;68.72;101324.81;5095146;28;20087;-65
2021/09/11 05:33:54;;;;;;;5.40;2.47;;;;;;;19.24;68.21;101325.88;5095349;28;20062;-65
2021/09/11 05:36:22;;;;;;;5.25;1.98;;;;;;;19.32;68.49;101324.94;5094266;28;20048;-65
2021/09/11 05:38:54;;;;;;;6.45;2.75;;;;;;;18.93;68.24;101323.81;5110924;28;20051;-65
2021/09/11 05:41:21;;;;;;;5.60;2.65;;;;;;;18.79;69.71;101328.97;5089520;28;20044;-65
2021/09/11 05:43:49;;;;;;;13.60;3.20;;;;;;;18.54;71.25;101330.19;5075264;28;20052;-66
2021/09/11 05:46:17;;;;;;;6.00;2.35;;;;;;;18.60;70.96;101331.59;5075193;28;20052;-65
2021/09/11 05:48:44;;;;;;;6.00;2.85;;;;;;;18.41;70.74;101334.97;5075108;28;20491;-65
2021/09/11 05:51:11;;;;;;;4.38;2.15;;;;;;;18.90;69.64;101330.91;5074453;28;20051;-64
2021/09/11 05:53:39;;;;;;;5.47;2.55;;;;;;;19.08;68.96;101345.38;5074667;28;20056;-64
2021/09/11 05:56:06;;;;;;;7.18;2.60;;;;;;;19.00;69.34;101341.56;5074635;28;20048;-62
2021/09/11 05:58:33;;;;;;;5.20;2.40;;;;;;;19.07;68.47;101343.78;5073288;28;20067;-60
2021/09/11 06:01:01;;;;;;;7.60;2.60;;;;;;;19.06;68.32;101356.09;5074006;28;20051;-61
2021/09/11 06:03:28;;;;;;;7.05;2.72;;;;;;;19.03;68.64;101359.59;5073052;28;20041;-61
2021/09/11 06:05:56;;;;;;;7.15;3.15;;;;;;;18.95;69.27;101363.38;5074282;28;20567;-60
2021/09/11 06:08:23;;;;;;;9.05;3.00;;;;;;;18.63;70.33;101369.94;5074345;28;20048;-64
2021/09/11 06:10:50;;;;;;;8.77;2.92;;;;;;;18.83;70.08;101366.16;5073922;28;20063;-65
2021/09/11 06:13:17;;;;;;;4.30;2.50;;;;;;;19.00;69.18;101377.06;5098389;28;20057;-65
2021/09/11 06:15:45;;;;;;;5.38;2.58;;;;;;;19.04;69.32;101376.00;5094183;28;20043;-65
2021/09/11 06:18:12;;;;;;;6.25;2.50;;;;;;;18.76;68.83;101377.94;5076202;28;20052;-65
2021/09/11 06:20:39;;;;;;;7.45;2.47;;;;;;;18.88;68.74;101379.91;5093456;28;20055;-64
2021/09/11 06:23:07;;;;;;;7.00;2.58;;;;;;;19.43;66.55;101376.31;5092935;28;20044;-65
2021/09/11 06:25:34;;;;;;;5.88;2.25;;;;;;;18.78;68.53;101383.97;5094190;28;20052;-66
2021/09/11 06:28:01;;;;;;;5.28;2.35;;;;;;;18.30;69.74;101395.19;5094574;28;20055;-63
2021/09/11 06:30:28;;;;;;;7.95;2.53;;;;;;;18.66;69.70;101388.78;5092412;28;20051;-64
2021/09/11 06:32:56;;;;;;;7.25;2.55;;;;;;;18.43;70.10;101382.88;5094219;28;20446;-65
2021/09/11 06:35:23;;;;;;;11.15;3.10;;;;;;;18.77;70.06;101385.16;5092795;28;20054;-65
2021/09/11 06:37:52;;;;;;;8.77;2.80;;;;;;;18.76;68.48;101385.50;5074428;28;20448;-66
2021/09/11 06:40:19;;;;;;;4.93;2.00;;;;;;;18.68;70.42;101373.31;5073704;28;20040;-65
2021/09/11 06:42:47;;;;;;;5.90;2.10;;;;;;;18.08;69.71;101381.66;5073729;28;20054;-66
2021/09/11 06:45:24;;;;;;;11.13;2.75;;;;;;;18.01;72.75;101386.22;5074004;28;20056;-66
2021/09/11 06:47:55;;;;;;;;;;;;;;;18.48;69.99;101384.63;5073347;28;20051;-65
2021/09/11 06:50:22;;;;;;;6.60;2.30;;;;;;;18.47;70.28;101386.59;5073531;28;19927;-65
2021/09/11 06:52:52;;;;;;;6.75;2.22;;;;;;;18.81;69.59;101385.28;5072666;28;20056;-64
2021/09/11 06:55:20;;;;;;;6.88;2.33;;;;;;;18.84;68.34;101381.75;5072396;28;20889;-65
2021/09/11 06:57:47;;;;;;;6.75;2.25;;;;;;;19.17;67.33;101373.97;5088712;28;20044;-65
2021/09/11 07:00:14;;;;;;;6.05;2.10;;;;;;;19.22;67.22;101389.66;5073585;28;20439;-65
2021/09/11 07:02:41;;;;;;;5.82;2.08;;;;;;;19.23;66.93;101388.50;5072267;28;20052;-61
2021/09/11 07:05:09;;;;;;;5.55;2.33;;;;;;;19.41;67.11;101390.66;5073074;28;20051;-61
2021/09/11 07:07:36;;;;;;;7.00;2.65;;;;;;;19.91;66.03;101388.03;5073103;28;20507;-62
2021/09/11 07:10:06;;;;;;;5.72;2.15;;;;;;;20.03;64.40;101398.34;5073280;28;20055;-62
2021/09/11 07:12:33;;;;;;;5.70;2.27;;;;;;;19.64;64.11;101408.47;5076356;28;20059;-65
2021/09/11 07:15:02;;;;;;;6.35;2.63;;;;;;;19.44;65.67;101401.13;5093676;28;20384;-62
2021/09/11 07:17:29;;;;;;;5.82;1.95;;;;;;;19.47;66.97;101410.78;5093442;28;20082;-62
2021/09/11 07:19:57;;;;;;;3.63;1.70;;;;;;;18.80;66.75;101419.91;5092218;28;20593;-61
2021/09/11 07:22:24;;;;;;;6.55;1.80;;;;;;;18.72;68.57;101416.09;5093166;28;20048;-65
2021/09/11 07:24:51;;;;;;;7.55;2.03;;;;;;;19.26;67.03;101413.75;5067118;28;20574;-65
2021/09/11 07:27:18;;;;;;;6.47;1.70;;;;;;;19.19;67.07;101418.31;5073076;28;20041;-65
2021/09/11 07:29:45;;;;;;;12.15;2.20;;;;;;;19.49;65.68;101414.03;5073202;28;20049;-65
2021/09/11 07:32:14;;;;;;;8.32;1.92;;;;;;;19.62;65.52;101407.19;5073158;28;20052;-65
2021/09/11 07:34:41;;;;;;;7.57;1.67;;;;;;;19.56;66.18;101411.44;5077310;28;20049;-64
2021/09/11 07:37:08;;;;;;;8.75;2.13;;;;;;;19.72;65.21;101406.66;5077002;28;20048;-64
2021/09/11 07:39:39;;;;;;;12.25;1.83;;;;;;;19.30;64.95;101405.47;5076602;28;20051;-65
2021/09/11 07:42:06;;;;;;;4.15;1.58;;;;;;;19.05;66.44;101410.31;5076914;28;20428;-61
2021/09/11 07:44:33;;;;;;;5.53;2.00;;;;;;;19.35;65.04;101417.25;5077388;28;20045;-62
2021/09/11 07:47:01;;;;;;;8.43;2.08;;;;;;;19.17;65.50;101420.63;5077082;28;20052;-62
2021/09/11 07:49:28;;;;;;;10.32;2.35;;;;;;;19.65;65.23;101417.69;5081193;28;20059;-65
2021/09/11 07:51:55;;;;;;;6.38;1.85;;;;;;;19.95;63.45;101419.72;5096806;28;20044;-67
2021/09/11 07:54:23;;;;;;;6.68;1.90;;;;;;;19.79;63.37;101418.88;5097355;28;20055;-65
2021/09/11 07:56:50;;;;;;;7.97;2.00;;;;;;;19.94;63.11;101408.88;5086936;28;20063;-61
2021/09/11 07:59:17;;;;;;;11.63;2.47;;;;;;;20.23;63.26;101414.06;5081603;28;20051;-62
2021/09/11 08:01:45;;;;;;;4.70;1.80;;;;;;;20.25;62.06;101417.31;5087583;28;20056;-60
2021/09/11 08:04:18;;;;;;;7.07;1.77;;;;;;;19.70;63.13;101423.00;5075971;28;20122;-62
2021/09/11 08:06:45;;;;;;;6.85;2.00;;;;;;;19.88;65.11;101427.09;5070936;28;20053;-62
2021/09/11 08:09:13;;;;;;;8.57;2.00;;;;;;;20.34;65.17;101417.94;5076586;28;20044;-61
2021/09/11 08:11:40;;;;;;;7.03;1.73;;;;;;;20.27;62.77;101428.13;5086545;28;20436;-62
2021/09/11 08:14:08;;;;;;;9.57;2.00;;;;;;;20.35;62.52;101430.75;5078887;28;20079;-63
2021/09/11 08:16:35;;;;;;;10.40;2.35;;;;;;;19.71;63.49;101438.59;5080952;28;20061;-60
2021/09/11 08:19:03;;;;;;;8.05;2.08;;;;;;;19.76;63.86;101436.38;5079435;28;20052;-66
2021/09/11 08:21:30;;;;;;;6.47;1.70;;;;;;;19.48;63.54;101446.75;5086047;28;20488;-61
2021/09/11 08:23:57;;;;;;;11.98;2.13;;;;;;;19.56;63.52;101442.19;5086031;28;20074;-64
2021/09/11 08:26:25;;;;;;;8.25;1.85;;;;;;;19.61;63.30;101448.34;5082533;28;20051;-61
2021/09/11 08:28:52;;;;;;;9.23;1.92;;;;;;;19.45;63.88;101460.63;5085406;28;20055;-60
2021/09/11 08:31:20;;;;;;;4.47;1.60;;;;;;;19.30;64.88;101451.00;5072514;28;20036;-63
2021/09/11 08:33:47;;;;;;;12.32;2.00;;;;;;;19.81;63.05;101449.25;5080126;28;20067;-67
2021/09/11 08:36:15;;;;;;;11.57;1.85;;;;;;;20.06;62.87;101451.56;5092137;28;20055;-64
2021/09/11 08:38:42;;;;;;;6.72;2.00;;;;;;;20.05;61.60;101449.94;5070455;28;20036;-62
2021/09/11 08:41:10;;;;;;;11.60;3.97;;;;;;;20.47;61.95;101444.63;5071566;28;20052;-64
2021/09/11 08:43:38;;;;;;;8.95;1.67;;;;;;;19.09;63.17;101450.31;5069853;28;20055;-63
2021/09/11 08:46:06;;;;;;;5.03;1.38;;;;;;;18.50;64.85;101454.81;5075526;28;20052;-62
2021/09/11 08:48:33;;;;;;;9.20;1.95;;;;;;;19.33;64.51;101447.50;5074673;28;20055;-63
2021/09/11 08:51:00;;;;;;;6.43;1.65;;;;;;;19.46;61.53;101457.47;5075726;28;20048;-62
2021/09/11 08:53:30;;;;;;;6.15;1.50;;;;;;;19.85;62.80;101455.78;5074407;28;20207;-63
2021/09/11 08:55:58;;;;;;;6.50;2.20;;;;;;;19.85;61.03;101455.78;5084572;28;20048;-64
2021/09/11 08:58:25;;;;;;;5.63;1.30;;;;;;;19.60;59.49;101448.66;5079068;28;20075;-62
2021/09/11 09:00:54;;;;;;;5.82;1.50;;;;;;;20.02;60.05;101449.84;5070844;28;20063;-61
2021/09/11 09:03:26;;;;;;;6.80;1.53;;;;;;;19.87;58.55;101456.22;5052674;28;20116;-63
2021/09/11 09:05:54;;;;;;;5.57;1.60;;;;;;;20.08;58.35;101443.59;5077501;28;20298;-63
2021/09/11 09:08:28;;;;;;;4.97;1.27;;;;;;;20.40;57.60;101438.06;5105982;28;20055;-64
2021/09/11 09:11:16;;;;;;;6.00;1.63;;;;;;;20.19;57.19;101457.13;5080976;28;20075;-62
2021/09/11 09:14:01;;;;;;;5.43;1.60;;;;;;;20.14;58.91;101453.38;5079394;28;20078;-64
2021/09/11 09:16:33;;;;;;;4.55;1.60;;;;;;;20.13;58.57;101451.75;5076042;28;20044;-65
2021/09/11 09:19:13;;;;;;;7.97;2.05;;;;;;;20.26;56.94;101443.31;5075686;28;20049;-62
2021/09/11 09:21:41;;;;;;;5.10;1.33;;;;;;;20.24;57.01;101437.25;5085920;28;20053;-63
2021/09/11 09:24:10;;;;;;;5.57;1.58;;;;;;;20.54;57.81;101432.81;5085715;28;20048;-63
2021/09/11 09:26:50;;;;;;;5.50;1.30;;;;;;;20.49;56.97;101438.69;5090950;28;20063;-63
2021/09/11 09:29:18;;;;;;;;;;;;;;;20.65;57.10;101445.88;5082894;28;20036;-64
2021/09/11 09:31:46;;;;;;;5.35;2.00;;;;;;;20.59;56.29;101438.16;5077601;28;19920;-63
2021/09/11 09:34:46;;;;;;;4.93;1.65;;;;;;;20.81;56.36;101434.66;5065308;28;20041;-64
2021/09/11 09:37:17;;;;;;;3.67;1.25;;;;;;;20.58;55.62;101433.69;5076683;28;20056;-62
2021/09/11 09:39:48;;;;;;;5.40;1.23;;;;;;;19.87;57.72;101445.03;5074555;28;20511;-64
2021/09/11 09:42:17;;;;;;;3.92;1.40;;;;;;;20.03;57.80;101443.09;5073845;28;20052;-63
2021/09/11 09:44:49;;;;;;;5.32;1.40;;;;;;;20.27;57.15;101436.53;5068738;28;20539;-64
2021/09/11 09:47:18;;;;;;;7.47;1.45;;;;;;;20.61;56.53;101435.78;5072764;28;20560;-68
2021/09/11 09:50:07;;;;;;;5.60;1.70;;;;;;;20.46;55.91;101437.44;5072563;28;20039;-68
2021/09/11 09:52:36;;;;;;;3.95;1.50;;;;;;;20.72;55.03;101436.84;5071786;28;20048;-67
2021/09/11 09:55:05;;;;;;;2.88;1.23;;;;;;;20.80;55.00;101442.25;5074630;28;20044;-68
2021/09/11 09:57:38;;;;;;;4.72;1.35;;;;;;;20.17;55.25;101439.88;5072192;28;20052;-69
2021/09/11 10:00:06;;;;;;;5.13;1.50;;;;;;;20.23;55.97;101430.84;5076809;28;20381;-69
2021/09/11 10:02:33;;;;;;;3.35;1.30;;;;;;;20.42;55.75;101430.91;5070834;28;20059;-69
2021/09/11 10:05:01;;;;;;;4.90;1.33;;;;;;;20.69;55.00;101418.81;5073908;28;20134;-70
2021/09/11 10:07:28;;;;;;;3.85;1.10;;;;;;;20.52;54.36;101418.38;5072225;28;20037;-68
2021/09/11 10:09:56;;;;;;;4.25;1.35;;;;;;;20.91;55.37;101417.28;5081456;28;20048;-70
2021/09/11 10:12:41;;;;;;;7.38;1.60;;;;;;;20.25;55.73;101428.50;5088897;28;20056;-70
2021/09/11 10:15:33;;;;;;;6.25;1.60;;;;;;;20.54;55.23;101428.03;5077890;28;20063;-70
2021/09/11 10:18:03;;;;;;;4.03;1.42;;;;;;;20.15;55.80;101429.03;5072369;28;20048;-64
2021/09/11 10:21:09;;;;;;;5.45;1.67;;;;;;;19.98;57.36;101434.94;5054464;28;20052;-69
2021/09/11 10:23:37;;;;;;;5.00;1.30;;;;;;;20.25;57.10;101419.28;5065901;28;20071;-68
2021/09/11 10:26:04;;;;;;;3.83;1.38;;;;;;;20.37;56.58;101422.81;5073653;28;20059;-68
2021/09/11 10:28:31;;;;;;;5.32;1.30;;;;;;;20.61;55.33;101428.19;5072364;28;20385;-68
2021/09/11 10:31:07;;;;;;;8.15;4.10;;;;;;;20.53;55.77;101440.41;5070718;28;20091;-68
2021/09/11 10:33:43;;;;;;;3.90;1.20;;;;;;;19.76;57.97;101429.94;5073298;28;20063;-67
2021/09/11 10:36:32;;;;;;;4.82;1.27;;;;;;;20.14;57.35;101425.41;5072033;28;20048;-68
2021/09/11 10:39:08;;;;;;;9.13;1.75;;;;;;;20.11;56.42;101425.31;5072537;28;20056;-68
2021/09/11 10:41:36;;;;;;;5.55;1.25;;;;;;;19.94;57.58;101432.06;5087382;28;20051;-67
2021/09/11 10:44:05;;;;;;;6.03;1.52;;;;;;;19.86;57.15;101424.66;5079526;28;20059;-67
2021/09/11 10:46:45;;;;;;;5.65;1.88;;;;;;;20.12;56.88;101419.34;5081138;28;20053;-67
2021/09/11 10:49:32;;;;;;;9.32;1.95;;;;;;;20.48;56.57;101414.66;5072680;28;20071;-67
2021/09/11 10:52:08;;;;;;;5.32;2.00;;;;;;;20.95;55.40;101415.38;5062243;28;20048;-67
2021/09/11 10:54:38;;;;;;;9.20;1.90;;;;;;;21.47;54.44;101406.50;5078697;28;20542;-66
2021/09/11 10:57:16;;;;;;;5.47;1.50;;;;;;;21.27;52.69;101414.91;5071164;28;20071;-66
2021/09/11 10:59:48;;;;;;;10.95;2.20;;;;;;;21.24;54.44;101412.84;5070953;28;20056;-65
2021/09/11 11:02:30;;;;;;;5.10;1.70;;;;;;;21.57;53.81;101414.28;5053252;28;20048;-67
2021/09/11 11:05:03;;;;;;;7.75;2.15;;;;;;;21.70;53.09;101408.19;5072465;28;20056;-66
2021/09/11 11:07:32;;;;;;;6.53;1.88;;;;;;;22.19;51.95;101408.28;5072887;28;20037;-66
2021/09/11 11:10:02;;;;;;;8.80;1.95;;;;;;;22.11;51.27;101415.78;5071413;28;20037;-66
2021/09/11 11:12:30;;;;;;;8.68;1.60;;;;;;;21.73;53.00;101415.03;5088922;28;20060;-65
2021/09/11 11:15:00;;;;;;;5.38;1.70;;;;;;;22.38;51.95;101411.00;5089848;28;20060;-66
2021/09/11 11:17:28;;;;;;;7.65;2.15;;;;;;;22.50;50.39;101410.81;5069462;28;20084;-65
2021/09/11 11:19:57;;;;;;;6.55;1.40;;;;;;;22.26;50.62;101411.22;5058591;28;20041;-65
2021/09/11 11:22:29;;;;;;;10.40;2.67;;;;;;;22.06;51.05;101410.47;5051762;28;20060;-66
2021/09/11 11:24:56;;;;;;;4.97;2.20;;;;;;;22.25;50.39;101407.59;5052806;28;20052;-65
2021/09/11 11:27:26;;;;;;;7.70;1.95;;;;;;;21.90;51.20;101404.16;5072574;28;20049;-65
2021/09/11 11:29:55;;;;;;;5.10;1.73;;;;;;;21.78;52.12;101404.34;5073200;28;20056;-66
2021/09/11 11:32:27;;;;;;;9.70;1.80;;;;;;;21.78;52.08;101397.91;5071541;28;20048;-66
2021/09/11 11:35:02;;;;;;;8.35;2.67;;;;;;;22.31;51.82;101397.69;5073227;28;20059;-65